createdAt,value
2022-10-10T00:01:20.937Z,2.10
2022-10-10T00:04:08.589Z,2.10
2022-10-10T00:06:56.417Z,2.10
2022-10-10T00:09:44.334Z,1.90
2022-10-10T00:12:32.047Z,2.05
2022-10-10T00:15:19.954Z,2.40
2022-10-10T00:18:07.923Z,2.30
2022-10-10T00:20:55.946Z,2.40
2022-10-10T00:23:44.039Z,2.35
2022-10-10T00:26:31.921Z,2.10
2022-10-10T00:29:19.763Z,1.90
2022-10-10T00:32:07.628Z,1.85
2022-10-10T00:34:55.445Z,2.17
2022-10-10T00:37:43.249Z,2.60
2022-10-10T00:45:28.819Z,2.08
2022-10-10T00:48:22.976Z,2.05
2022-10-10T00:51:17.946Z,2.17
2022-10-10T00:54:10.057Z,2.10
2022-10-10T00:57:04.736Z,2.13
2022-10-10T00:59:53.731Z,2.05
2022-10-10T01:02:41.954Z,1.80
2022-10-10T01:05:30.371Z,2.30
2022-10-10T01:08:19.726Z,2.00
2022-10-10T01:11:32.461Z,1.80
2022-10-10T01:14:35.823Z,2.03
2022-10-10T01:17:41.991Z,1.95
2022-10-10T01:20:51.348Z,1.50
2022-10-10T01:23:54.521Z,1.77
2022-10-10T01:27:08.134Z,2.35
2022-10-10T01:30:09.498Z,2.38
2022-10-10T01:32:57.015Z,1.90
2022-10-10T01:35:47.655Z,1.75
2022-10-10T01:38:54.871Z,2.17
2022-10-10T01:42:04.940Z,1.77
2022-10-10T01:44:54.268Z,2.05
2022-10-10T01:47:41.905Z,1.90
2022-10-10T01:50:38.714Z,1.15
2022-10-10T01:56:19.742Z,1.80
2022-10-10T02:00:02.091Z,1.75
2022-10-10T02:03:10.337Z,1.80
2022-10-10T02:06:10.086Z,2.08
2022-10-10T02:09:07.303Z,1.85
2022-10-10T02:11:56.587Z,2.00
2022-10-10T02:14:48.477Z,1.77
2022-10-10T02:17:39.522Z,1.65
2022-10-10T02:20:30.579Z,1.83
2022-10-10T02:23:21.556Z,1.80
2022-10-10T02:26:12.959Z,2.33
2022-10-10T02:29:16.588Z,2.20
2022-10-10T02:32:16.775Z,1.80
2022-10-10T02:35:09.494Z,1.73
2022-10-10T02:38:00.299Z,1.88
2022-10-10T02:40:50.242Z,1.75
2022-10-10T02:43:38.701Z,2.03
2022-10-10T02:46:26.379Z,1.88
2022-10-10T02:49:14.375Z,2.08
2022-10-10T02:52:02.606Z,2.17
2022-10-10T02:54:50.318Z,2.38
2022-10-10T02:57:38.163Z,1.95
2022-10-10T03:00:26.560Z,2.28
2022-10-10T03:03:14.233Z,2.60
2022-10-10T03:06:02.869Z,3.03
2022-10-10T03:08:50.487Z,3.10
2022-10-10T03:11:38.054Z,1.83
2022-10-10T03:14:25.918Z,2.78
2022-10-10T03:17:13.940Z,3.10
2022-10-10T03:20:01.940Z,3.00
2022-10-10T03:22:51.781Z,3.30
2022-10-10T03:25:43.766Z,2.60
2022-10-10T03:28:31.894Z,3.05
2022-10-10T03:31:19.510Z,2.80
2022-10-10T03:34:07.464Z,2.17
2022-10-10T03:36:55.135Z,2.97
2022-10-10T03:39:43.265Z,3.05
2022-10-10T03:42:30.905Z,2.42
2022-10-10T03:45:19.142Z,2.50
2022-10-10T03:48:06.912Z,2.78
2022-10-10T03:50:54.703Z,3.40
2022-10-10T03:53:44.222Z,3.13
2022-10-10T03:56:31.891Z,2.28
2022-10-10T03:59:19.806Z,2.70
2022-10-10T04:02:07.824Z,2.47
2022-10-10T04:04:55.473Z,3.10
2022-10-10T04:07:43.569Z,3.10
2022-10-10T04:10:31.648Z,2.33
2022-10-10T04:13:20.801Z,2.22
2022-10-10T04:16:08.842Z,2.53
2022-10-10T04:18:56.528Z,2.20
2022-10-10T04:21:45.020Z,2.42
2022-10-10T04:24:33.340Z,2.10
2022-10-10T04:27:21.159Z,2.20
2022-10-10T04:30:09.879Z,2.22
2022-10-10T04:32:57.903Z,2.15
2022-10-10T04:35:48.536Z,3.00
2022-10-10T04:38:36.398Z,2.05
2022-10-10T04:41:24.344Z,2.30
2022-10-10T04:44:12.029Z,2.00
2022-10-10T04:46:59.899Z,2.10
2022-10-10T04:49:47.971Z,2.45
2022-10-10T04:52:36.133Z,2.08
2022-10-10T04:55:24.345Z,2.03
2022-10-10T04:58:12.583Z,2.53
2022-10-10T05:01:00.833Z,2.25
2022-10-10T05:03:48.479Z,2.40
2022-10-10T05:06:36.617Z,2.72
2022-10-10T05:09:24.548Z,2.15
2022-10-10T05:12:12.211Z,2.97
2022-10-10T05:15:00.188Z,2.33
2022-10-10T05:17:47.867Z,2.13
2022-10-10T05:20:37.217Z,3.47
2022-10-10T05:23:24.899Z,2.65
2022-10-10T05:26:12.879Z,2.67
2022-10-10T05:29:01.944Z,2.67
2022-10-10T05:31:49.755Z,2.60
2022-10-10T05:34:38.020Z,2.40
2022-10-10T05:37:25.687Z,2.25
2022-10-10T05:40:13.632Z,2.45
2022-10-10T05:43:01.771Z,2.70
2022-10-10T05:45:49.466Z,3.05
2022-10-10T05:48:37.341Z,2.67
2022-10-10T05:51:25.495Z,3.28
2022-10-10T05:54:13.173Z,3.00
2022-10-10T05:57:01.316Z,2.50
2022-10-10T05:59:48.942Z,2.80
2022-10-10T06:02:36.792Z,2.70
2022-10-10T06:05:25.426Z,2.92
2022-10-10T06:08:13.021Z,2.30
2022-10-10T06:11:04.807Z,2.72
2022-10-10T06:13:54.425Z,2.08
2022-10-10T06:16:45.491Z,3.28
2022-10-10T06:19:33.184Z,2.95
2022-10-10T06:22:21.517Z,2.92
2022-10-10T06:25:23.989Z,3.55
2022-10-10T06:28:17.513Z,5.30
2022-10-10T06:31:08.462Z,3.95
2022-10-10T06:33:56.212Z,2.70
2022-10-10T06:36:44.059Z,3.15
2022-10-10T06:39:32.058Z,2.90
2022-10-10T06:42:20.167Z,3.22
2022-10-10T06:45:14.080Z,2.70
2022-10-10T06:48:02.170Z,2.60
2022-10-10T06:51:03.996Z,2.65
2022-10-10T06:53:52.175Z,3.92
2022-10-10T06:56:39.743Z,3.05
2022-10-10T06:59:27.965Z,3.20
2022-10-10T07:02:15.679Z,2.35
2022-10-10T07:05:03.714Z,3.40
2022-10-10T07:07:52.575Z,3.90
2022-10-10T07:10:40.222Z,3.35
2022-10-10T07:13:28.605Z,3.00
2022-10-10T07:16:16.191Z,3.08
2022-10-10T07:19:05.139Z,3.58
2022-10-10T07:21:53.255Z,3.78
2022-10-10T07:24:41.387Z,2.70
2022-10-10T07:27:29.282Z,2.78
2022-10-10T07:30:17.394Z,2.78
2022-10-10T07:33:10.630Z,2.72
2022-10-10T07:35:58.505Z,3.17
2022-10-10T07:38:51.917Z,3.85
2022-10-10T07:41:39.783Z,3.60
2022-10-10T07:44:31.202Z,3.30
2022-10-10T07:47:21.832Z,3.10
2022-10-10T07:50:11.856Z,3.70
2022-10-10T07:53:00.222Z,2.53
2022-10-10T07:55:48.159Z,4.18
2022-10-10T07:58:36.773Z,3.22
2022-10-10T08:01:25.017Z,3.40
2022-10-10T08:04:13.111Z,2.50
2022-10-10T08:07:01.025Z,2.50
2022-10-10T08:09:48.912Z,2.90
2022-10-10T08:12:36.925Z,3.97
2022-10-10T08:15:26.091Z,3.15
2022-10-10T08:18:16.073Z,4.32
2022-10-10T08:21:06.690Z,3.78
2022-10-10T08:23:55.734Z,2.83
2022-10-10T08:26:43.356Z,3.40
2022-10-10T08:29:33.255Z,3.08
2022-10-10T08:32:21.143Z,3.25
2022-10-10T08:35:09.263Z,3.13
2022-10-10T08:37:57.077Z,3.40
2022-10-10T08:40:50.722Z,2.40
2022-10-10T08:43:47.635Z,2.33
2022-10-10T08:46:44.782Z,2.55
2022-10-10T08:49:37.661Z,2.67
2022-10-10T08:52:33.234Z,3.47
2022-10-10T08:55:31.263Z,2.38
2022-10-10T08:58:21.042Z,2.58
2022-10-10T09:01:28.673Z,2.50
2022-10-10T09:04:19.840Z,3.88
2022-10-10T09:07:41.331Z,2.45
2022-10-10T09:10:57.368Z,2.03
2022-10-10T09:14:03.952Z,3.27
2022-10-10T09:17:17.329Z,2.07
2022-10-10T09:20:18.807Z,2.20
2022-10-10T09:23:28.669Z,3.08
2022-10-10T09:26:22.092Z,2.45
2022-10-10T09:29:25.885Z,2.40
2022-10-10T09:32:24.778Z,2.00
2022-10-10T09:35:34.792Z,2.65
2022-10-10T09:38:34.616Z,2.20
2022-10-10T09:41:59.652Z,1.98
2022-10-10T09:44:47.560Z,1.88
2022-10-10T09:47:35.810Z,1.85
2022-10-10T09:50:27.624Z,1.63
2022-10-10T09:53:17.309Z,2.10
2022-10-10T09:56:06.027Z,2.25
2022-10-10T09:58:56.060Z,2.30
2022-10-10T10:02:02.017Z,2.42
2022-10-10T10:04:51.238Z,1.88
2022-10-10T10:07:48.424Z,2.00
2022-10-10T10:10:38.172Z,1.60
2022-10-10T10:13:33.047Z,1.80
2022-10-10T10:16:29.511Z,1.67
2022-10-10T10:19:34.150Z,3.40
2022-10-10T10:22:46.947Z,1.83
2022-10-10T10:25:37.853Z,2.45
2022-10-10T10:28:26.069Z,2.20
2022-10-10T10:31:52.160Z,2.25
2022-10-10T10:34:54.048Z,1.80
2022-10-10T10:37:50.637Z,2.00
2022-10-10T10:41:01.306Z,1.52
2022-10-10T10:44:04.022Z,2.03
2022-10-10T10:47:18.627Z,2.03
2022-10-10T10:50:50.625Z,2.95
2022-10-10T10:53:51.542Z,2.08
2022-10-10T10:56:53.023Z,2.00
2022-10-10T11:00:22.050Z,2.05
2022-10-10T11:05:20.168Z,2.63
2022-10-10T11:07:20.295Z,1.80
2022-10-10T11:10:27.655Z,2.50
2022-10-10T11:13:24.399Z,2.47
2022-10-10T11:16:36.683Z,2.20
2022-10-10T11:19:38.312Z,2.10
2022-10-10T11:22:31.962Z,1.80
2022-10-10T11:25:26.139Z,2.05
2022-10-10T11:28:29.470Z,2.45
2022-10-10T11:31:42.688Z,2.25
2022-10-10T11:34:33.633Z,2.67
2022-10-10T11:37:27.750Z,2.15
2022-10-10T11:40:32.507Z,2.60
2022-10-10T11:43:35.409Z,2.83
2022-10-10T11:46:47.559Z,1.90
2022-10-10T11:50:07.262Z,3.00
2022-10-10T11:53:17.697Z,2.28
2022-10-10T11:56:12.398Z,2.13
2022-10-10T11:59:24.296Z,2.70
2022-10-10T12:02:25.703Z,2.53
2022-10-10T12:05:24.863Z,4.68
2022-10-10T12:08:22.428Z,2.17
2022-10-10T12:11:18.735Z,2.40
2022-10-10T12:14:10.189Z,2.50
2022-10-10T12:16:58.816Z,2.10
2022-10-10T12:19:48.849Z,1.60
2022-10-10T12:22:36.794Z,2.17
2022-10-10T12:25:37.060Z,4.60
2022-10-10T12:29:02.334Z,2.47
2022-10-10T12:32:30.358Z,2.85
2022-10-10T12:35:29.365Z,1.75
2022-10-10T12:38:21.043Z,2.75
2022-10-10T12:41:11.876Z,2.78
2022-10-10T12:44:22.361Z,2.63
2022-10-10T12:47:15.964Z,2.60
2022-10-10T12:50:21.973Z,1.92
2022-10-10T12:53:12.509Z,1.58
2022-10-10T12:56:02.622Z,1.80
2022-10-10T12:58:50.691Z,1.90
2022-10-10T13:01:46.679Z,1.70
2022-10-10T13:04:34.683Z,1.73
2022-10-10T13:07:24.956Z,1.52
2022-10-10T13:10:23.025Z,1.63
2022-10-10T13:13:13.979Z,1.80
2022-10-10T13:16:14.550Z,2.15
2022-10-10T13:19:02.552Z,1.60
2022-10-10T13:21:55.680Z,1.40
2022-10-10T13:24:44.336Z,1.60
2022-10-10T13:27:35.231Z,1.58
2022-10-10T13:30:25.211Z,1.92
2022-10-10T13:33:22.212Z,1.50
2022-10-10T13:36:20.946Z,2.42
2022-10-10T13:39:15.614Z,1.92
2022-10-10T13:42:06.359Z,1.38
2022-10-10T13:44:55.336Z,1.63
2022-10-10T13:47:49.677Z,1.58
2022-10-10T13:50:43.583Z,1.60
2022-10-10T13:53:44.260Z,1.55
2022-10-10T13:56:41.399Z,2.05
2022-10-10T13:59:30.266Z,2.10
2022-10-10T14:02:25.384Z,1.92
2022-10-10T14:05:26.215Z,1.73
2022-10-10T14:08:18.603Z,1.20
2022-10-10T14:11:08.659Z,1.70
2022-10-10T14:14:17.237Z,2.05
2022-10-10T14:17:05.941Z,2.83
2022-10-10T14:19:53.925Z,1.98
2022-10-10T14:22:41.824Z,1.90
2022-10-10T14:25:30.023Z,3.08
2022-10-10T14:28:25.331Z,1.92
2022-10-10T14:31:13.339Z,2.17
2022-10-10T14:34:01.240Z,3.03
2022-10-10T14:36:50.677Z,3.10
2022-10-10T14:39:38.310Z,3.88
2022-10-10T14:42:26.587Z,2.00
2022-10-10T14:45:16.579Z,3.35
2022-10-10T14:48:04.673Z,2.40
2022-10-10T14:50:52.560Z,3.65
2022-10-10T14:53:40.528Z,2.05
2022-10-10T14:57:09.185Z,2.08
2022-10-10T14:59:48.629Z,2.00
2022-10-10T15:02:42.006Z,2.33
2022-10-10T15:05:32.229Z,3.33
2022-10-10T15:08:20.318Z,2.00
2022-10-10T15:11:08.199Z,1.83
2022-10-10T15:13:57.341Z,2.05
2022-10-10T15:16:45.121Z,2.78
2022-10-10T15:19:33.037Z,3.90
2022-10-10T15:22:20.976Z,2.70
2022-10-10T15:25:09.870Z,3.40
2022-10-10T15:27:58.821Z,2.15
2022-10-10T15:30:46.942Z,5.53
2022-10-10T15:33:34.870Z,3.55
2022-10-10T15:36:23.117Z,4.00
2022-10-10T15:39:11.568Z,2.33
2022-10-10T15:42:08.000Z,2.67
2022-10-10T15:44:59.888Z,2.75
2022-10-10T15:47:47.606Z,3.00
2022-10-10T15:50:39.260Z,2.95
2022-10-10T15:53:29.047Z,3.22
2022-10-10T15:56:17.210Z,2.70
2022-10-10T15:59:05.636Z,4.32
2022-10-10T16:01:54.741Z,3.85
2022-10-10T16:04:42.978Z,2.72
2022-10-10T16:07:34.642Z,3.28
2022-10-10T16:10:26.403Z,2.95
2022-10-10T16:13:14.119Z,2.50
2022-10-10T16:16:04.357Z,2.45
2022-10-10T16:18:52.890Z,1.83
2022-10-10T16:21:40.976Z,4.85
2022-10-10T16:24:29.031Z,3.63
2022-10-10T16:27:16.795Z,2.00
2022-10-10T16:30:06.369Z,2.55
2022-10-10T16:32:54.054Z,2.50
2022-10-10T16:35:42.243Z,2.65
2022-10-10T16:38:29.880Z,3.70
2022-10-10T16:41:42.525Z,2.97
2022-10-10T16:44:26.367Z,2.70
2022-10-10T16:47:14.215Z,3.00
2022-10-10T16:50:02.643Z,3.22
2022-10-10T16:52:51.356Z,3.13
2022-10-10T16:55:40.693Z,3.42
2022-10-10T16:58:29.972Z,2.35
2022-10-10T17:01:20.870Z,2.60
2022-10-10T17:04:09.135Z,2.63
2022-10-10T17:06:57.019Z,2.88
2022-10-10T17:09:46.310Z,2.15
2022-10-10T17:12:34.078Z,3.75
2022-10-10T17:15:22.611Z,3.03
2022-10-10T17:18:10.477Z,2.88
2022-10-10T17:20:58.830Z,2.90
2022-10-10T17:23:47.415Z,2.92
2022-10-10T17:26:35.259Z,4.45
2022-10-10T17:29:23.732Z,3.17
2022-10-10T17:32:12.468Z,2.80
2022-10-10T17:35:00.403Z,3.00
2022-10-10T17:37:48.518Z,2.47
2022-10-10T17:40:39.509Z,3.95
2022-10-10T17:43:27.608Z,5.45
2022-10-10T17:46:40.104Z,2.78
2022-10-10T17:49:28.521Z,2.85
2022-10-10T17:52:20.928Z,2.65
2022-10-10T17:55:09.307Z,2.40
2022-10-10T17:57:59.252Z,2.70
2022-10-10T18:00:47.374Z,2.17
2022-10-10T18:03:35.563Z,3.20
2022-10-10T18:06:23.918Z,3.95
2022-10-10T18:09:12.152Z,4.25
2022-10-10T18:11:59.938Z,4.30
2022-10-10T18:14:48.350Z,3.83
2022-10-10T18:17:35.969Z,4.22
2022-10-10T18:20:24.396Z,2.88
2022-10-10T18:23:12.125Z,2.50
2022-10-10T18:26:11.431Z,3.42
2022-10-10T18:28:59.745Z,3.47
2022-10-10T18:31:47.506Z,5.03
2022-10-10T18:34:35.328Z,4.72
2022-10-10T18:37:23.250Z,4.53
2022-10-10T18:40:12.096Z,3.90
2022-10-10T18:42:59.899Z,3.92
2022-10-10T18:45:49.505Z,3.33
2022-10-10T18:48:38.641Z,2.63
2022-10-10T18:51:29.685Z,2.70
2022-10-10T18:54:18.401Z,3.13
2022-10-10T18:57:06.492Z,4.05
2022-10-10T18:59:55.172Z,3.30
2022-10-10T19:02:43.372Z,2.83
2022-10-10T19:05:30.936Z,4.40
2022-10-10T19:08:18.997Z,4.97
2022-10-10T19:11:08.185Z,2.95
2022-10-10T19:13:58.280Z,3.58
2022-10-10T19:16:47.877Z,3.70
2022-10-10T19:19:36.943Z,4.65
2022-10-10T19:22:25.097Z,3.95
2022-10-10T19:25:13.240Z,4.53
2022-10-10T19:28:01.120Z,3.60
2022-10-10T19:30:50.077Z,4.07
2022-10-10T19:33:38.003Z,3.85
2022-10-10T19:36:26.737Z,3.85
2022-10-10T19:39:14.626Z,4.30
2022-10-10T19:42:02.731Z,4.30
2022-10-10T19:44:52.339Z,3.78
2022-10-10T19:47:40.175Z,3.70
2022-10-10T19:50:27.999Z,4.28
2022-10-10T19:53:18.074Z,4.15
2022-10-10T19:56:20.503Z,4.65
2022-10-10T19:59:08.719Z,3.92
2022-10-10T20:01:56.381Z,6.30
2022-10-10T20:04:45.247Z,6.25
2022-10-10T20:07:32.899Z,4.88
2022-10-10T20:10:20.746Z,4.32
2022-10-10T20:13:12.642Z,4.63
2022-10-10T20:16:03.367Z,4.47
2022-10-10T20:18:51.704Z,4.55
2022-10-10T20:21:39.549Z,4.63
2022-10-10T20:24:27.547Z,4.05
2022-10-10T20:27:15.795Z,4.55
2022-10-10T20:30:04.547Z,4.15
2022-10-10T20:32:52.415Z,4.10
2022-10-10T20:35:39.997Z,5.10
2022-10-10T20:38:28.148Z,4.55
2022-10-10T20:41:16.045Z,4.88
2022-10-10T20:44:05.645Z,3.92
2022-10-10T20:46:53.506Z,4.63
2022-10-10T20:49:41.355Z,4.57
2022-10-10T20:52:28.930Z,4.32
2022-10-10T20:55:16.751Z,4.63
2022-10-10T20:58:04.538Z,4.38
2022-10-10T21:01:07.891Z,3.88
2022-10-10T21:03:55.905Z,3.97
2022-10-10T21:06:43.836Z,4.32
2022-10-10T21:09:32.811Z,3.80
2022-10-10T21:12:20.967Z,3.80
2022-10-10T21:15:09.279Z,3.60
2022-10-10T21:17:58.159Z,4.78
2022-10-10T21:20:45.722Z,3.72
2022-10-10T21:23:36.663Z,3.58
2022-10-10T21:26:26.511Z,3.97
2022-10-10T21:29:14.792Z,3.63
2022-10-10T21:32:02.717Z,3.72
2022-10-10T21:34:54.368Z,4.68
2022-10-10T21:37:45.527Z,3.10
2022-10-10T21:40:37.303Z,3.78
2022-10-10T21:43:24.886Z,3.58
2022-10-10T21:46:15.579Z,3.63
2022-10-10T21:49:06.839Z,3.92
2022-10-10T21:51:54.662Z,3.50
2022-10-10T21:54:42.458Z,3.65
2022-10-10T21:57:31.047Z,4.47
2022-10-10T22:00:19.574Z,3.67
2022-10-10T22:03:07.652Z,4.28
2022-10-10T22:05:55.223Z,3.22
2022-10-10T22:08:44.036Z,4.03
2022-10-10T22:11:32.896Z,3.78
2022-10-10T22:14:20.620Z,3.42
2022-10-10T22:17:08.437Z,3.17
2022-10-10T22:19:56.364Z,3.75
2022-10-10T22:22:45.701Z,3.88
2022-10-10T22:25:33.348Z,3.53
2022-10-10T22:28:21.592Z,3.40
2022-10-10T22:31:13.174Z,3.35
2022-10-10T22:34:01.207Z,3.00
2022-10-10T22:36:49.116Z,3.75
2022-10-10T22:39:37.798Z,3.33
2022-10-10T22:42:25.474Z,4.30
2022-10-10T22:45:13.255Z,3.78
2022-10-10T22:48:00.974Z,3.47
2022-10-10T22:50:57.985Z,3.05
2022-10-10T22:53:47.230Z,2.97
2022-10-10T22:56:35.296Z,3.40
2022-10-10T22:59:22.829Z,3.38
2022-10-10T23:02:10.912Z,3.22
2022-10-10T23:04:59.582Z,5.82
2022-10-10T23:07:47.648Z,3.92
2022-10-10T23:10:35.393Z,3.50
2022-10-10T23:13:23.374Z,3.50
2022-10-10T23:16:12.335Z,3.35
2022-10-10T23:18:59.896Z,3.15
2022-10-10T23:21:47.679Z,3.00
2022-10-10T23:24:37.630Z,3.58
2022-10-10T23:27:25.678Z,3.58
2022-10-10T23:30:13.619Z,3.00
2022-10-10T23:33:01.783Z,3.50
2022-10-10T23:36:03.864Z,3.08
2022-10-10T23:38:52.621Z,3.42
2022-10-10T23:41:40.744Z,3.10
2022-10-10T23:44:28.634Z,3.50
2022-10-10T23:47:16.723Z,3.05
2022-10-10T23:50:04.715Z,3.40
2022-10-10T23:52:52.522Z,3.72
2022-10-10T23:55:40.561Z,3.00
2022-10-10T23:58:28.749Z,3.17
